Sample Charts Sidebar
> Live data! Your data is on the web site for you to access within minutes
 
> Detailed data is easily downloaded as data file, which can be opened with Excel
 
> Charts can be customised if necessary
  Chart 1
 

(A maximum of 50 rows are displayed here. Use "Export Data" to see all rows in the date range.)
Date Collected Temperature
(Celcius)
Wind-chill
(Celcius)
Wind Speed
(km/hr)
Gust
(km/hr)
Wind Direction
(degrees)
2021-03-04 00:00 9.2 3.1 10 23 209
2021-03-03 23:00 8.4 6.7 4 10 197
2021-03-03 22:00 7.5 5.8 4 13 187
2021-03-03 21:00 8.6 6.3 5 15 201
2021-03-03 20:00 8.8 1.5 11 28 199
2021-03-03 19:00 9.1 4.2 7 20 205
2021-03-03 18:00 8.6 7.8 2 13 216
2021-03-03 17:00 8.1 3.2 8 20 193
2021-03-03 16:00 8.7 6.3 5 15 264
2021-03-03 15:00 9.6 5.6 7 19 222
2021-03-03 14:00 9.7 2.6 10 25 207
2021-03-03 13:00 10.3 4.0 10 23 206
2021-03-03 12:00 10.6 6.2 7 15 208
2021-03-03 11:00 9.8 8.1 4 11 199
2021-03-03 10:00 9.6 9.2 2 8 200
2021-03-03 09:00 9.5 8.1 4 11 197
2021-03-03 08:00 9.7 9.0 3 10 222
2021-03-03 07:00 11.2 10.3 3 8 234
2021-03-03 06:00 12.8 12.2 3 10 345
2021-03-03 05:00 13.2 11.6 4 13 342
2021-03-03 04:00 13.0 12.3 3 10 356
2021-03-03 03:00 13.4 11.8 5 16 353
2021-03-03 02:00 14.4 11.4 6 20 348
2021-03-03 01:00 14.2 11.6 6 16 12
2021-03-03 00:00 14.2 12.1 5 15 350
2021-03-02 23:00 13.5 11.7 5 13 347
2021-03-02 22:00 13.6 12.9 3 8 1
2021-03-02 21:00 13.3 11.6 5 10 50
2021-03-02 20:00 14.1 12.8 4 13 20
2021-03-02 19:00 14.7 13.1 5 16 348
2021-03-02 18:00 15.3 13.8 4 14 359
2021-03-02 17:00 15.2 12.9 6 18 343
2021-03-02 16:00 15.5 13.5 5 16 336
2021-03-02 15:00 16.3 12.9 7 25 345
2021-03-02 14:00 16.8 13.9 7 20 21
2021-03-02 13:00 16.3 12.9 7 19 3
2021-03-02 12:00 15.8 13.2 6 16 19
2021-03-02 11:00 15.2 12.1 7 15 16
2021-03-02 10:00 12.1 9.1 5 16 31
2021-03-02 09:00 8.4 6.5 4 8 61
2021-03-02 08:00 6.5 4.1 5 9 57
2021-03-02 07:00 5.5 3.3 4 8 44
2021-03-02 06:00 4.4 1.4 5 10 56
2021-03-02 05:00 4.0 1.2 5 11 48
2021-03-02 04:00 4.0 1.4 5 10 56
2021-03-02 03:00 3.5 1.1 5 11 56
2021-03-02 02:00 4.0 1.8 4 9 50
2021-03-02 01:00 4.2 1.8 5 10 51
2021-03-02 00:00 4.6 3.1 4 8 49
2021-03-01 23:00 5.0 4.3 3 6 52